createdAt,value
2019-05-16T00:00:40.151Z,94679.78
2019-05-16T00:03:08.036Z,94677.05
2019-05-16T00:05:47.719Z,94682.66
2019-05-16T00:08:03.735Z,94681.24
2019-05-16T00:10:30.505Z,94677.77
2019-05-16T00:12:59.533Z,94673.64
2019-05-16T00:15:26.038Z,94672.11
2019-05-16T00:17:54.733Z,94671.25
2019-05-16T00:20:21.607Z,94667.74
2019-05-16T00:22:48.594Z,94675.27
2019-05-16T00:25:15.358Z,94670.86
2019-05-16T00:27:42.192Z,94680.61
2019-05-16T00:30:09.541Z,94678.31
2019-05-16T00:32:38.707Z,94677.16
2019-05-16T00:35:05.828Z,94667.27
2019-05-16T00:37:32.565Z,94669.95
2019-05-16T00:42:25.184Z,94676.79
2019-05-16T00:44:51.965Z,94658.31
2019-05-16T00:47:18.664Z,94652.34
2019-05-16T00:49:47.824Z,94660.50
2019-05-16T00:52:14.177Z,94650.36
2019-05-16T00:54:43.630Z,94654.42
2019-05-16T00:57:10.786Z,94657.20
2019-05-16T00:59:38.171Z,94650.36
2019-05-16T01:02:05.007Z,94650.70
2019-05-16T01:04:31.962Z,94650.16
2019-05-16T01:07:01.682Z,94651.43
2019-05-16T01:09:28.262Z,94648.68
2019-05-16T01:11:55.417Z,94644.34
2019-05-16T01:14:22.078Z,94642.11
2019-05-16T01:16:48.928Z,94642.59
2019-05-16T01:19:15.736Z,94652.70
2019-05-16T01:21:42.444Z,94650.75
2019-05-16T01:24:09.147Z,94656.77
2019-05-16T01:26:35.924Z,94658.16
2019-05-16T01:29:02.606Z,94666.93
2019-05-16T01:31:29.274Z,94667.52
2019-05-16T01:33:58.292Z,94663.30
2019-05-16T01:36:34.236Z,94650.63
2019-05-16T01:38:53.369Z,94649.28
2019-05-16T01:41:20.156Z,94642.51
2019-05-16T01:43:48.365Z,94632.98
2019-05-16T01:46:17.858Z,94645.50
2019-05-16T01:51:10.250Z,94636.02
2019-05-16T01:53:39.292Z,94636.02
2019-05-16T01:56:05.661Z,94647.21
2019-05-16T01:58:32.423Z,94650.35
2019-05-16T02:01:11.650Z,94644.73
2019-05-16T02:05:53.801Z,94643.06
2019-05-16T02:08:20.463Z,94630.03
2019-05-16T02:10:47.853Z,94618.60
2019-05-16T02:13:15.101Z,94621.16
2019-05-16T02:15:41.958Z,94612.19
2019-05-16T02:18:08.719Z,94613.78
2019-05-16T02:20:35.202Z,94609.30
2019-05-16T02:23:01.703Z,94614.81
2019-05-16T02:25:28.550Z,94614.25
2019-05-16T02:27:55.223Z,94619.16
2019-05-16T02:32:47.791Z,94627.41
2019-05-16T02:35:14.564Z,94621.35
2019-05-16T02:40:07.705Z,94604.02
2019-05-16T02:42:34.577Z,94611.41
2019-05-16T02:45:02.310Z,94617.59
2019-05-16T02:47:30.916Z,94608.50
2019-05-16T02:50:00.992Z,94608.42
2019-05-16T02:52:27.031Z,94613.05
2019-05-16T02:54:53.754Z,94608.50
2019-05-16T02:57:21.233Z,94608.10
2019-05-16T02:59:50.904Z,94615.15
2019-05-16T03:02:16.887Z,94607.81
2019-05-16T03:04:44.414Z,94611.05
2019-05-16T03:07:30.288Z,94598.84
2019-05-16T03:09:42.482Z,94590.49
2019-05-16T03:12:10.747Z,94586.23
2019-05-16T03:14:37.870Z,94615.15
2019-05-16T03:17:04.791Z,94633.34
2019-05-16T03:19:34.747Z,94637.28
2019-05-16T03:22:03.763Z,94642.86
2019-05-16T03:24:31.101Z,94640.42
2019-05-16T03:27:01.313Z,94638.50
2019-05-16T03:29:26.881Z,94635.20
2019-05-16T03:31:54.850Z,94625.67
2019-05-16T03:34:25.106Z,94631.88
2019-05-16T03:36:54.411Z,94630.48
2019-05-16T03:39:21.219Z,94629.16
2019-05-16T03:41:50.565Z,94628.30
2019-05-16T03:44:16.360Z,94632.50
2019-05-16T03:46:43.042Z,94624.12
2019-05-16T03:49:11.396Z,94625.67
2019-05-16T03:51:41.220Z,94631.56
2019-05-16T03:54:06.938Z,94630.95
2019-05-16T03:56:34.802Z,94630.54
2019-05-16T03:59:01.493Z,94622.88
2019-05-16T04:01:31.118Z,94625.54
2019-05-16T04:03:56.906Z,94624.89
2019-05-16T04:06:23.713Z,94626.38
2019-05-16T04:08:51.234Z,94623.16
2019-05-16T04:11:23.041Z,94617.68
2019-05-16T04:13:47.087Z,94614.92
2019-05-16T04:16:13.869Z,94616.23
2019-05-16T04:18:41.948Z,94613.76
2019-05-16T04:21:11.812Z,94612.36
2019-05-16T04:23:41.677Z,94616.38
2019-05-16T04:26:06.785Z,94618.94
2019-05-16T04:28:34.262Z,94622.02
2019-05-16T04:31:02.219Z,94623.56
2019-05-16T04:33:30.950Z,94618.09
2019-05-16T04:36:00.882Z,94621.05
2019-05-16T04:38:39.642Z,94623.61
2019-05-16T04:40:55.226Z,94628.63
2019-05-16T04:43:23.040Z,94631.23
2019-05-16T04:45:52.285Z,94627.78
2019-05-16T04:48:21.822Z,94633.10
2019-05-16T04:50:47.079Z,94629.28
2019-05-16T04:53:13.781Z,94636.56
2019-05-16T04:55:41.982Z,94640.59
2019-05-16T04:58:10.609Z,94639.36
2019-05-16T05:00:37.569Z,94632.20
2019-05-16T05:03:04.543Z,94630.42
2019-05-16T05:05:33.388Z,94629.30
2019-05-16T05:08:01.518Z,94620.05
2019-05-16T05:10:31.262Z,94628.45
2019-05-16T05:12:57.329Z,94621.63
2019-05-16T05:15:24.105Z,94628.07
2019-05-16T05:17:50.948Z,94626.61
2019-05-16T05:20:20.836Z,94627.41
2019-05-16T05:22:46.465Z,94627.65
2019-05-16T05:25:13.324Z,94626.05
2019-05-16T05:27:41.279Z,94625.34
2019-05-16T05:30:10.743Z,94619.81
2019-05-16T05:32:36.864Z,94620.77
2019-05-16T05:35:07.170Z,94635.75
2019-05-16T05:37:33.859Z,94635.19
2019-05-16T05:40:00.565Z,94638.41
2019-05-16T05:42:30.654Z,94634.29
2019-05-16T05:44:57.106Z,94629.98
2019-05-16T05:47:23.832Z,94629.69
2019-05-16T05:49:50.745Z,94627.83
2019-05-16T05:52:17.434Z,94633.08
2019-05-16T05:54:44.126Z,94631.80
2019-05-16T05:57:10.889Z,94624.95
2019-05-16T05:59:37.599Z,94634.91
2019-05-16T06:02:04.313Z,94639.88
2019-05-16T06:04:31.168Z,94635.20
2019-05-16T06:07:01.175Z,94642.03
2019-05-16T06:09:30.035Z,94645.25
2019-05-16T06:11:56.468Z,94637.84
2019-05-16T06:14:24.177Z,94630.03
2019-05-16T06:16:51.064Z,94631.39
2019-05-16T06:19:20.048Z,94626.96
2019-05-16T06:21:46.601Z,94630.71
2019-05-16T06:24:16.317Z,94626.91
2019-05-16T06:26:43.186Z,94630.68
2019-05-16T06:29:10.615Z,94636.20
2019-05-16T06:31:40.632Z,94638.24
2019-05-16T06:34:11.411Z,94636.31
2019-05-16T06:36:36.165Z,94632.80
2019-05-16T06:39:05.602Z,94629.03
2019-05-16T06:41:32.402Z,94627.87
2019-05-16T06:43:59.940Z,94610.75
2019-05-16T06:46:26.809Z,94612.04
2019-05-16T06:48:53.627Z,94610.98
2019-05-16T06:51:21.484Z,94618.31
2019-05-16T06:53:50.032Z,94620.72
2019-05-16T06:56:16.980Z,94615.46
2019-05-16T06:58:48.274Z,94612.97
2019-05-16T07:01:12.479Z,94609.28
2019-05-16T07:03:40.087Z,94613.86
2019-05-16T07:06:07.110Z,94617.00
2019-05-16T07:08:33.864Z,94611.14
2019-05-16T07:11:00.627Z,94606.78
2019-05-16T07:13:27.382Z,94609.92
2019-05-16T07:15:54.132Z,94609.92
2019-05-16T07:18:21.428Z,94605.23
2019-05-16T07:20:50.726Z,94604.13
2019-05-16T07:23:17.215Z,94605.16
2019-05-16T07:25:43.980Z,94605.88
2019-05-16T07:28:10.867Z,94607.95
2019-05-16T07:30:37.681Z,94610.30
2019-05-16T07:33:04.930Z,94610.53
2019-05-16T07:35:31.368Z,94617.34
2019-05-16T07:38:00.606Z,94613.14
2019-05-16T07:40:27.812Z,94611.73
2019-05-16T07:42:54.960Z,94611.40
2019-05-16T07:45:21.702Z,94612.95
2019-05-16T07:47:50.664Z,94610.38
2019-05-16T07:50:19.979Z,94611.50
2019-05-16T07:52:45.426Z,94615.75
2019-05-16T07:55:12.207Z,94612.04
2019-05-16T07:57:39.871Z,94613.09
2019-05-16T08:00:09.655Z,94611.94
2019-05-16T08:02:36.611Z,94611.73
2019-05-16T08:05:04.661Z,94611.65
2019-05-16T08:07:33.665Z,94612.10
2019-05-16T08:10:00.088Z,94613.09
2019-05-16T08:12:27.276Z,94608.67
2019-05-16T08:14:54.419Z,94614.04
2019-05-16T08:19:50.620Z,94616.23
2019-05-16T08:22:17.757Z,94608.73
2019-05-16T08:24:44.448Z,94612.05
2019-05-16T08:27:12.237Z,94615.06
2019-05-16T08:29:40.444Z,94618.63
2019-05-16T08:32:11.205Z,94613.70
2019-05-16T08:34:36.024Z,94602.97
2019-05-16T08:37:02.871Z,94605.88
2019-05-16T08:39:31.039Z,94596.91
2019-05-16T08:42:05.358Z,94599.20
2019-05-16T08:44:26.786Z,94596.39
2019-05-16T08:49:22.398Z,94595.41
2019-05-16T08:50:05.719Z,94613.21
2019-05-16T08:50:10.798Z,94596.13
2019-05-16T08:54:20.707Z,94593.25
2019-05-16T08:56:50.788Z,94590.93
2019-05-16T08:59:16.170Z,94603.20
2019-05-16T09:01:50.630Z,94594.06
2019-05-16T09:04:11.994Z,94592.05
2019-05-16T09:06:42.419Z,94598.07
2019-05-16T09:09:22.304Z,94599.35
2019-05-16T09:10:30.561Z,94594.30
2019-05-16T09:11:44.087Z,94593.91
2019-05-16T09:14:07.717Z,94593.73
2019-05-16T09:16:33.465Z,94593.66
2019-05-16T09:19:00.299Z,94599.27
2019-05-16T09:21:27.610Z,94604.31
2019-05-16T09:23:54.459Z,94597.36
2019-05-16T09:26:21.175Z,94594.29
2019-05-16T09:28:48.363Z,94586.30
2019-05-16T09:31:17.843Z,94588.84
2019-05-16T09:33:43.881Z,94598.72
2019-05-16T09:36:10.614Z,94597.27
2019-05-16T09:38:38.308Z,94593.91
2019-05-16T09:41:07.849Z,94593.17
2019-05-16T09:43:33.861Z,94590.22
2019-05-16T09:46:04.009Z,94581.63
2019-05-16T09:48:29.434Z,94574.08
2019-05-16T09:50:57.702Z,94568.63
2019-05-16T09:53:24.638Z,94573.59
2019-05-16T09:55:51.399Z,94580.28
2019-05-16T09:58:18.632Z,94581.86
2019-05-16T10:00:47.302Z,94589.02
2019-05-16T10:03:20.115Z,94593.83
2019-05-16T10:05:46.498Z,94582.48
2019-05-16T10:08:12.782Z,94595.80
2019-05-16T10:10:39.502Z,94586.78
2019-05-16T10:13:06.830Z,94589.02
2019-05-16T10:15:33.671Z,94598.14
2019-05-16T10:18:00.444Z,94588.08
2019-05-16T10:20:27.462Z,94591.19
2019-05-16T10:22:54.400Z,94594.77
2019-05-16T10:25:21.252Z,94578.96
2019-05-16T10:27:47.973Z,94583.59
2019-05-16T10:30:17.646Z,94581.73
2019-05-16T10:32:47.183Z,94572.28
2019-05-16T10:35:14.980Z,94575.09
2019-05-16T10:37:41.636Z,94582.52
2019-05-16T10:40:09.347Z,94577.98
2019-05-16T10:42:37.960Z,94575.34
2019-05-16T10:45:08.628Z,94579.33
2019-05-16T10:47:37.084Z,94586.65
2019-05-16T10:50:06.452Z,94585.95
2019-05-16T10:52:33.109Z,94578.25
2019-05-16T10:55:02.464Z,94573.11
2019-05-16T10:57:30.079Z,94576.93
2019-05-16T11:00:06.696Z,94579.18
2019-05-16T11:02:27.524Z,94573.90
2019-05-16T11:05:02.852Z,94578.16
2019-05-16T11:07:23.160Z,94573.45
2019-05-16T11:09:57.943Z,94577.37
2019-05-16T11:12:20.430Z,94569.84
2019-05-16T11:14:47.899Z,94563.16
2019-05-16T11:17:18.813Z,94561.66
2019-05-16T11:24:37.570Z,94574.73
2019-05-16T11:27:03.687Z,94565.38
2019-05-16T11:29:30.361Z,94563.91
2019-05-16T11:31:57.428Z,94567.91
2019-05-16T11:34:26.502Z,94562.95
2019-05-16T11:39:19.058Z,94559.82
2019-05-16T11:41:47.540Z,94575.86
2019-05-16T11:44:17.414Z,94586.69
2019-05-16T11:46:43.244Z,94598.72
2019-05-16T11:49:10.238Z,94593.02
2019-05-16T11:51:38.358Z,94590.78
2019-05-16T11:54:06.907Z,94571.12
2019-05-16T11:56:33.840Z,94558.77
2019-05-16T11:59:00.534Z,94566.49
2019-05-16T12:01:27.727Z,94568.80
2019-05-16T12:03:57.342Z,94581.16
2019-05-16T12:06:23.301Z,94576.36
2019-05-16T12:08:49.992Z,94552.60
2019-05-16T12:11:17.842Z,94538.27
2019-05-16T12:13:47.410Z,94559.59
2019-05-16T12:16:15.605Z,94582.77
2019-05-16T12:18:42.091Z,94576.34
2019-05-16T12:21:08.787Z,94556.05
2019-05-16T12:23:37.452Z,94544.91
2019-05-16T12:26:04.483Z,94532.02
2019-05-16T12:28:32.115Z,94544.20
2019-05-16T12:31:00.308Z,94557.83
2019-05-16T12:33:27.610Z,94568.56
2019-05-16T12:35:54.470Z,94540.99
2019-05-16T12:38:22.054Z,94536.96
2019-05-16T12:40:48.962Z,94548.52
2019-05-16T12:43:17.787Z,94574.27
2019-05-16T12:45:47.120Z,94583.80
2019-05-16T12:48:16.740Z,94596.48
2019-05-16T12:50:41.959Z,94594.36
2019-05-16T12:53:08.725Z,94595.01
2019-05-16T12:55:36.867Z,94555.27
2019-05-16T12:58:12.552Z,94556.47
2019-05-16T13:00:32.279Z,94570.67
2019-05-16T13:02:58.984Z,94561.34
2019-05-16T13:05:26.917Z,94550.55
2019-05-16T13:07:54.187Z,94533.23
2019-05-16T13:10:20.855Z,94529.06
2019-05-16T13:12:47.721Z,94521.34
2019-05-16T13:15:14.433Z,94513.48
2019-05-16T13:17:41.120Z,94517.73
2019-05-16T13:20:08.657Z,94526.45
2019-05-16T13:22:38.463Z,94517.81
2019-05-16T13:25:07.635Z,94517.98
2019-05-16T13:27:37.031Z,94524.78
2019-05-16T13:30:07.338Z,94525.66
2019-05-16T13:32:37.408Z,94527.84
2019-05-16T13:35:07.677Z,94519.41
2019-05-16T13:37:34.528Z,94516.73
2019-05-16T13:40:01.917Z,94529.12
2019-05-16T13:42:29.097Z,94531.09
2019-05-16T13:44:57.675Z,94532.31
2019-05-16T13:47:26.840Z,94529.73
2019-05-16T13:49:53.064Z,94531.34
2019-05-16T13:52:19.750Z,94535.94
2019-05-16T13:54:46.514Z,94519.50
2019-05-16T13:57:13.189Z,94520.48
2019-05-16T13:59:39.921Z,94514.52
2019-05-16T14:02:08.080Z,94513.91
2019-05-16T14:04:37.073Z,94520.75
2019-05-16T14:07:03.613Z,94517.67
2019-05-16T14:09:30.322Z,94511.26
2019-05-16T14:11:57.020Z,94507.52
2019-05-16T14:14:34.796Z,94522.61
2019-05-16T14:16:52.500Z,94515.21
2019-05-16T14:19:19.176Z,94523.53
2019-05-16T14:21:47.795Z,94528.98
2019-05-16T14:24:17.831Z,94526.66
2019-05-16T14:26:46.485Z,94529.80
2019-05-16T14:29:13.492Z,94528.97
2019-05-16T14:31:40.279Z,94526.26
2019-05-16T14:34:08.105Z,94534.61
2019-05-16T14:36:37.276Z,94529.60
2019-05-16T14:39:06.199Z,94531.41
2019-05-16T14:41:33.280Z,94533.83
2019-05-16T14:43:59.204Z,94525.17
2019-05-16T14:46:27.461Z,94529.09
2019-05-16T14:48:54.443Z,94537.87
2019-05-16T14:51:21.127Z,94537.23
2019-05-16T14:53:47.851Z,94524.34
2019-05-16T14:56:14.613Z,94531.72
2019-05-16T14:58:41.386Z,94533.31
2019-05-16T15:03:36.375Z,94531.78
2019-05-16T15:06:02.931Z,94528.66
2019-05-16T15:08:29.679Z,94526.73
2019-05-16T15:10:57.396Z,94527.13
2019-05-16T15:15:50.327Z,94527.69
2019-05-16T15:18:17.776Z,94546.53
2019-05-16T15:20:46.979Z,94550.92
2019-05-16T15:23:13.420Z,94529.52
2019-05-16T15:25:40.126Z,94545.22
2019-05-16T15:28:07.613Z,94549.48
2019-05-16T15:30:39.105Z,94557.31
2019-05-16T15:33:04.508Z,94555.01
2019-05-16T15:35:31.267Z,94546.09
2019-05-16T15:37:59.004Z,94532.97
2019-05-16T15:40:26.823Z,94526.72
2019-05-16T15:42:58.860Z,94538.52
2019-05-16T15:45:37.959Z,94544.73
2019-05-16T15:48:01.116Z,94560.95
2019-05-16T15:50:28.313Z,94554.80
2019-05-16T15:52:58.942Z,94544.13
2019-05-16T15:55:27.018Z,94535.47
2019-05-16T15:57:53.580Z,94537.36
2019-05-16T16:02:50.181Z,94512.94
2019-05-16T16:05:17.653Z,94516.38
2019-05-16T16:07:44.873Z,94528.16
2019-05-16T16:10:11.953Z,94548.07
2019-05-16T16:12:38.916Z,94566.03
2019-05-16T16:15:07.589Z,94573.19
2019-05-16T16:17:37.684Z,94582.81
2019-05-16T16:20:09.896Z,94598.41
2019-05-16T16:22:33.592Z,94620.30
2019-05-16T16:25:00.294Z,94615.79
2019-05-16T16:27:27.554Z,94595.80
2019-05-16T16:29:54.480Z,94580.11
2019-05-16T16:32:21.191Z,94579.57
2019-05-16T16:34:49.133Z,94586.66
2019-05-16T16:37:16.841Z,94598.41
2019-05-16T16:39:43.828Z,94597.11
2019-05-16T17:12:12.550Z,94615.22
2019-05-16T17:14:39.374Z,94628.63
2019-05-16T17:17:07.094Z,94653.05
2019-05-16T17:19:36.599Z,94668.91
2019-05-16T17:22:14.686Z,94661.16
2019-05-16T17:24:31.805Z,94641.57
2019-05-16T17:26:58.630Z,94640.73
2019-05-16T17:29:27.649Z,94622.62
2019-05-16T17:32:00.564Z,94632.66
2019-05-16T17:34:23.027Z,94644.76
2019-05-16T17:36:49.891Z,94651.66
2019-05-16T17:39:18.243Z,94660.47
2019-05-16T17:41:52.006Z,94672.08
2019-05-16T17:44:14.089Z,94663.45
2019-05-16T17:46:41.150Z,94653.69
2019-05-16T17:49:08.172Z,94653.13
2019-05-16T17:51:36.720Z,94649.11
2019-05-16T17:54:06.604Z,94645.99
2019-05-16T17:56:33.391Z,94653.02
2019-05-16T17:59:00.100Z,94655.20
2019-05-16T18:01:27.437Z,94656.30
2019-05-16T18:03:57.086Z,94660.93
2019-05-16T18:06:23.489Z,94675.56
2019-05-16T18:08:50.337Z,94677.89
2019-05-16T18:11:17.791Z,94671.23
2019-05-16T18:13:46.424Z,94672.05
2019-05-16T18:16:13.494Z,94677.11
2019-05-16T18:18:40.402Z,94669.92
2019-05-16T18:21:07.395Z,94665.40
2019-05-16T18:23:34.145Z,94667.55
2019-05-16T18:26:02.161Z,94673.13
2019-05-16T18:28:29.137Z,94666.73
2019-05-16T18:30:56.671Z,94670.48
2019-05-16T18:33:23.577Z,94671.05
2019-05-16T18:35:50.342Z,94674.42
2019-05-16T18:38:17.460Z,94682.46
2019-05-16T18:40:44.203Z,94700.40
2019-05-16T18:43:10.973Z,94698.59
2019-05-16T18:45:37.728Z,94688.50
2019-05-16T18:48:07.328Z,94691.27
2019-05-16T18:50:34.315Z,94684.96
2019-05-16T18:53:01.071Z,94686.47
2019-05-16T18:55:27.866Z,94679.28
2019-05-16T18:57:54.578Z,94683.57
2019-05-16T19:00:21.449Z,94679.41
2019-05-16T19:02:48.280Z,94675.48
2019-05-16T19:05:17.219Z,94671.65
2019-05-16T19:07:44.467Z,94669.49
2019-05-16T19:10:11.655Z,94676.45
2019-05-16T19:12:38.453Z,94689.00
2019-05-16T19:15:08.219Z,94682.83
2019-05-16T19:17:35.501Z,94685.54
2019-05-16T19:20:06.642Z,94689.61
2019-05-16T19:22:33.269Z,94699.71
2019-05-16T19:25:01.051Z,94694.38
2019-05-16T19:27:27.870Z,94688.86
2019-05-16T19:29:56.800Z,94683.44
2019-05-16T19:32:23.706Z,94683.33
2019-05-16T19:34:50.449Z,94683.02
2019-05-16T19:37:17.217Z,94686.29
2019-05-16T19:39:46.194Z,94691.20
2019-05-16T19:42:12.681Z,94690.63
2019-05-16T19:44:39.464Z,94704.40
2019-05-16T19:47:07.122Z,94697.94
2019-05-16T19:49:34.142Z,94700.34
2019-05-16T19:52:00.839Z,94705.47
2019-05-16T19:54:27.882Z,94721.51
2019-05-16T19:56:56.532Z,94708.65
2019-05-16T19:59:23.560Z,94704.63
2019-05-16T20:01:50.499Z,94701.02
2019-05-16T20:04:18.423Z,94703.92
2019-05-16T20:06:47.412Z,94697.60
2019-05-16T20:09:16.501Z,94699.25
2019-05-16T20:11:42.838Z,94699.52
2019-05-16T20:14:09.785Z,94695.34
2019-05-16T20:16:36.800Z,94688.16
2019-05-16T20:19:03.582Z,94702.05
2019-05-16T20:21:30.241Z,94708.84
2019-05-16T20:23:58.157Z,94708.23
2019-05-16T20:26:27.253Z,94702.42
2019-05-16T20:28:53.903Z,94702.38
2019-05-16T20:31:20.645Z,94708.84
2019-05-16T20:33:47.313Z,94704.19
2019-05-16T20:36:14.203Z,94705.89
2019-05-16T20:38:41.078Z,94696.20
2019-05-16T20:41:08.917Z,94693.50
2019-05-16T20:43:36.803Z,94699.86
2019-05-16T20:46:03.863Z,94705.94
2019-05-16T20:48:30.600Z,94712.72
2019-05-16T20:50:57.417Z,94712.11
2019-05-16T20:53:26.958Z,94704.29
2019-05-16T20:55:52.782Z,94700.75
2019-05-16T20:58:19.534Z,94699.56
2019-05-16T21:00:49.563Z,94700.22
2019-05-16T21:03:16.295Z,94714.13
2019-05-16T21:05:47.664Z,94711.59
2019-05-16T21:08:13.013Z,94708.75
2019-05-16T21:10:39.738Z,94713.09
2019-05-16T21:13:07.236Z,94719.87
2019-05-16T21:15:37.272Z,94719.84
2019-05-16T21:18:04.181Z,94718.70
2019-05-16T21:20:30.870Z,94712.49
2019-05-16T21:22:57.633Z,94709.30
2019-05-16T21:25:26.403Z,94720.11
2019-05-16T21:27:53.030Z,94714.97
2019-05-16T21:30:19.960Z,94714.97
2019-05-16T21:32:47.152Z,94706.17
2019-05-16T21:35:14.267Z,94707.21
2019-05-16T21:37:41.101Z,94703.09
2019-05-16T21:40:09.341Z,94712.91
2019-05-16T21:42:37.034Z,94718.05
2019-05-16T21:45:06.940Z,94709.69
2019-05-16T21:47:36.981Z,94703.19
2019-05-16T21:50:07.401Z,94706.17
2019-05-16T21:52:36.431Z,94705.86
2019-05-16T21:55:07.102Z,94704.26
2019-05-16T21:57:33.982Z,94707.67
2019-05-16T22:00:00.673Z,94701.87
2019-05-16T22:02:27.334Z,94697.89
2019-05-16T22:04:54.231Z,94691.39
2019-05-16T22:07:32.860Z,94692.47
2019-05-16T22:09:51.279Z,94695.83
2019-05-16T22:12:18.203Z,94698.03
2019-05-16T22:14:50.994Z,94700.27
2019-05-16T22:17:17.829Z,94702.98
2019-05-16T22:19:46.803Z,94700.55
2019-05-16T22:22:13.486Z,94699.20
2019-05-16T22:24:40.392Z,94697.51
2019-05-16T22:27:08.184Z,94700.55
2019-05-16T22:29:37.038Z,94699.86
2019-05-16T22:32:03.647Z,94698.30
2019-05-16T22:34:30.397Z,94695.78
2019-05-16T22:36:57.401Z,94693.07
2019-05-16T22:39:26.356Z,94695.55
2019-05-16T22:41:53.357Z,94694.19
2019-05-16T22:44:20.177Z,94695.45
2019-05-16T22:46:46.926Z,94688.61
2019-05-16T22:49:14.049Z,94686.05
2019-05-16T22:51:40.806Z,94684.03
2019-05-16T22:54:07.817Z,94684.03
2019-05-16T22:56:34.643Z,94687.03
2019-05-16T22:59:01.569Z,94675.38
2019-05-16T23:01:28.407Z,94686.19
2019-05-16T23:03:56.667Z,94687.30
2019-05-16T23:06:23.563Z,94690.26
2019-05-16T23:08:50.324Z,94686.45
2019-05-16T23:11:17.014Z,94688.56
2019-05-16T23:13:43.682Z,94689.13
2019-05-16T23:16:10.544Z,94687.02
2019-05-16T23:18:37.683Z,94678.00
2019-05-16T23:21:06.405Z,94679.22
2019-05-16T23:23:33.556Z,94682.63
2019-05-16T23:26:00.351Z,94682.95
2019-05-16T23:28:27.348Z,94681.25
2019-05-16T23:30:54.359Z,94678.25
2019-05-16T23:33:21.121Z,94676.89
2019-05-16T23:35:47.777Z,94673.37
2019-05-16T23:38:19.316Z,94685.61
2019-05-16T23:40:43.134Z,94677.58
2019-05-16T23:43:10.076Z,94678.94
2019-05-16T23:45:37.480Z,94671.55
2019-05-16T23:48:09.498Z,94665.94
2019-05-16T23:50:33.207Z,94666.22
2019-05-16T23:53:00.948Z,94672.72
2019-05-16T23:55:27.871Z,94668.98
2019-05-16T23:57:56.991Z,94666.68
